createdAt,value
2023-01-15T00:00:05.961Z,7.80
2023-01-15T00:02:51.781Z,7.90
2023-01-15T00:05:37.264Z,7.90
2023-01-15T00:08:23.101Z,7.90
2023-01-15T00:11:08.837Z,7.80
2023-01-15T00:13:55.908Z,7.70
2023-01-15T00:16:41.872Z,7.70
2023-01-15T00:19:28.099Z,7.80
2023-01-15T00:22:13.773Z,7.80
2023-01-15T00:25:17.674Z,7.90
2023-01-15T00:28:03.563Z,8.00
2023-01-15T00:30:49.411Z,7.90
2023-01-15T00:33:35.191Z,8.00
2023-01-15T00:36:21.101Z,8.10
2023-01-15T00:39:07.077Z,8.10
2023-01-15T00:41:55.283Z,8.20
2023-01-15T00:44:40.996Z,8.20
2023-01-15T00:47:26.637Z,8.10
2023-01-15T00:50:14.257Z,8.10
2023-01-15T00:52:59.815Z,8.00
2023-01-15T00:55:45.666Z,8.00
2023-01-15T00:58:31.241Z,8.00
2023-01-15T01:01:16.959Z,8.00
2023-01-15T01:04:03.220Z,7.90
2023-01-15T01:06:49.012Z,8.00
2023-01-15T01:09:35.172Z,8.00
2023-01-15T01:12:21.436Z,8.00
2023-01-15T01:15:07.833Z,8.00
2023-01-15T01:17:53.735Z,8.00
2023-01-15T01:20:39.355Z,8.00
2023-01-15T01:23:25.288Z,8.00
2023-01-15T01:26:11.266Z,8.00
2023-01-15T01:28:58.161Z,8.00
2023-01-15T01:31:44.356Z,8.00
2023-01-15T01:34:29.786Z,8.10
2023-01-15T01:37:15.549Z,8.10
2023-01-15T01:40:01.157Z,8.20
2023-01-15T01:42:46.737Z,8.20
2023-01-15T01:45:33.921Z,8.30
2023-01-15T01:48:26.717Z,8.20
2023-01-15T01:51:12.931Z,8.20
2023-01-15T01:54:00.286Z,8.30
2023-01-15T01:56:49.165Z,8.50
2023-01-15T01:59:35.341Z,8.60
2023-01-15T02:02:24.184Z,8.50
2023-01-15T02:05:13.150Z,8.50
2023-01-15T02:07:58.814Z,8.40
2023-01-15T02:10:49.084Z,8.50
2023-01-15T02:13:55.217Z,8.60
2023-01-15T02:16:47.529Z,8.60
2023-01-15T02:20:13.551Z,8.70
2023-01-15T02:23:30.938Z,8.70
2023-01-15T02:26:26.465Z,8.60
2023-01-15T02:29:20.250Z,8.80
2023-01-15T02:32:12.511Z,8.70
2023-01-15T02:35:07.819Z,8.20
2023-01-15T02:37:57.712Z,8.60
2023-01-15T02:40:44.769Z,8.60
2023-01-15T02:43:35.466Z,8.70
2023-01-15T02:46:26.625Z,8.80
2023-01-15T02:49:16.412Z,8.80
2023-01-15T02:52:15.540Z,8.70
2023-01-15T02:55:07.301Z,8.70
2023-01-15T02:58:01.762Z,8.80
2023-01-15T03:00:55.757Z,8.70
2023-01-15T03:03:52.025Z,8.60
2023-01-15T03:06:46.425Z,8.70
2023-01-15T03:09:32.959Z,8.70
2023-01-15T03:13:03.407Z,8.70
2023-01-15T03:16:40.559Z,8.80
2023-01-15T03:19:45.278Z,8.60
2023-01-15T03:22:39.659Z,8.60
2023-01-15T03:25:29.720Z,8.70
2023-01-15T03:28:40.702Z,8.60
2023-01-15T03:31:26.575Z,8.60
2023-01-15T03:34:20.316Z,8.60
2023-01-15T03:37:07.546Z,8.60
2023-01-15T03:39:55.021Z,8.70
2023-01-15T03:43:24.116Z,8.90
2023-01-15T03:46:34.890Z,9.00
2023-01-15T03:49:50.892Z,9.10
2023-01-15T03:53:09.769Z,9.10
2023-01-15T03:56:06.504Z,9.00
2023-01-15T03:59:18.272Z,9.20
2023-01-15T04:02:13.900Z,9.20
2023-01-15T04:05:00.679Z,9.10
2023-01-15T04:07:50.325Z,9.10
2023-01-15T04:10:36.889Z,8.90
2023-01-15T04:13:26.030Z,8.90
2023-01-15T04:16:18.481Z,8.80
2023-01-15T04:19:04.237Z,8.70
2023-01-15T04:21:53.129Z,8.70
2023-01-15T04:24:38.877Z,8.70
2023-01-15T04:27:24.841Z,8.70
2023-01-15T04:30:11.255Z,8.60
2023-01-15T04:32:57.415Z,8.60
2023-01-15T04:35:46.979Z,8.50
2023-01-15T04:38:32.596Z,8.50
2023-01-15T04:41:36.684Z,8.50
2023-01-15T04:44:22.350Z,8.70
2023-01-15T04:47:07.915Z,8.60
2023-01-15T04:49:53.651Z,8.70
2023-01-15T04:52:39.142Z,8.60
2023-01-15T04:55:24.712Z,8.70
2023-01-15T04:58:10.733Z,8.70
2023-01-15T05:00:56.766Z,8.70
2023-01-15T05:03:43.056Z,8.60
2023-01-15T05:06:29.620Z,8.70
2023-01-15T05:09:15.571Z,8.70
2023-01-15T05:12:01.772Z,8.60
2023-01-15T05:14:47.463Z,8.70
2023-01-15T05:17:33.887Z,8.60
2023-01-15T05:20:19.701Z,8.50
2023-01-15T05:23:05.575Z,8.40
2023-01-15T05:25:51.050Z,8.40
2023-01-15T05:28:36.704Z,8.40
2023-01-15T05:31:23.476Z,8.50
2023-01-15T05:34:10.236Z,8.80
2023-01-15T05:36:55.752Z,8.80
2023-01-15T05:39:41.190Z,8.90
2023-01-15T05:42:26.987Z,9.00
2023-01-15T05:45:12.510Z,9.00
2023-01-15T05:47:58.219Z,9.00
2023-01-15T05:50:44.309Z,9.20
2023-01-15T05:53:30.353Z,8.50
2023-01-15T05:56:16.166Z,8.30
2023-01-15T05:59:02.033Z,8.60
2023-01-15T06:01:48.463Z,8.90
2023-01-15T06:04:34.519Z,9.00
2023-01-15T06:07:20.107Z,9.10
2023-01-15T06:10:06.594Z,9.20
2023-01-15T06:12:52.505Z,9.30
2023-01-15T06:15:38.326Z,9.40
2023-01-15T06:18:24.312Z,9.40
2023-01-15T06:21:12.196Z,9.40
2023-01-15T06:23:57.724Z,9.40
2023-01-15T06:26:43.697Z,9.20
2023-01-15T06:29:29.243Z,9.20
2023-01-15T06:32:15.329Z,9.20
2023-01-15T06:35:00.884Z,9.20
2023-01-15T06:37:46.494Z,9.30
2023-01-15T06:40:32.032Z,9.30
2023-01-15T06:43:36.082Z,9.30
2023-01-15T06:46:39.933Z,9.10
2023-01-15T06:49:25.513Z,8.90
2023-01-15T06:52:11.075Z,8.00
2023-01-15T06:54:56.734Z,8.10
2023-01-15T06:57:42.572Z,8.60
2023-01-15T07:00:28.287Z,8.50
2023-01-15T07:03:14.480Z,7.60
2023-01-15T07:05:59.962Z,7.30
2023-01-15T07:08:45.571Z,7.60
2023-01-15T07:11:31.616Z,7.90
2023-01-15T07:14:25.917Z,8.50
2023-01-15T07:17:12.175Z,8.80
2023-01-15T07:19:57.699Z,8.80
2023-01-15T07:22:43.265Z,8.30
2023-01-15T07:25:28.773Z,8.40
2023-01-15T07:28:14.584Z,8.40
2023-01-15T07:31:00.515Z,8.00
2023-01-15T07:33:46.083Z,8.20
2023-01-15T07:36:32.088Z,8.30
2023-01-15T07:39:17.920Z,8.60
2023-01-15T07:42:22.312Z,8.60
2023-01-15T07:45:28.672Z,9.00
2023-01-15T07:48:32.911Z,9.20
2023-01-15T07:51:18.859Z,9.40
2023-01-15T07:54:04.678Z,9.20
2023-01-15T07:56:52.912Z,9.30
2023-01-15T07:59:39.304Z,7.90
2023-01-15T08:02:25.474Z,7.50
2023-01-15T08:05:11.780Z,7.90
2023-01-15T08:07:57.469Z,8.60
2023-01-15T08:11:04.080Z,9.00
2023-01-15T08:14:08.595Z,9.10
2023-01-15T08:16:54.551Z,9.30
2023-01-15T08:19:40.076Z,9.50
2023-01-15T08:22:25.362Z,9.50
2023-01-15T08:25:13.385Z,9.40
2023-01-15T08:28:02.801Z,9.50
2023-01-15T08:30:49.162Z,9.40
2023-01-15T08:33:34.893Z,9.50
2023-01-15T08:36:20.640Z,9.60
2023-01-15T08:39:06.327Z,9.60
2023-01-15T08:41:51.885Z,8.60
2023-01-15T08:44:37.179Z,8.50
2023-01-15T08:47:22.949Z,8.50
2023-01-15T08:50:09.619Z,8.40
2023-01-15T08:52:55.112Z,8.50
2023-01-15T08:55:41.057Z,8.10
2023-01-15T08:58:31.992Z,8.00
2023-01-15T09:01:17.780Z,8.80
2023-01-15T09:04:04.072Z,9.30
2023-01-15T09:06:50.322Z,8.80
2023-01-15T09:09:36.045Z,8.70
2023-01-15T09:12:25.013Z,9.00
2023-01-15T09:15:11.108Z,8.80
2023-01-15T09:17:58.536Z,8.40
2023-01-15T09:20:44.230Z,8.30
2023-01-15T09:23:29.913Z,8.50
2023-01-15T09:26:32.112Z,8.10
2023-01-15T09:29:20.772Z,8.40
2023-01-15T09:32:09.955Z,9.00
2023-01-15T09:34:55.766Z,9.50
2023-01-15T09:37:41.227Z,9.40
2023-01-15T09:40:45.713Z,8.20
2023-01-15T09:43:57.239Z,8.00
2023-01-15T09:47:03.567Z,8.20
2023-01-15T09:50:01.037Z,7.80
2023-01-15T09:53:03.552Z,7.80
2023-01-15T09:55:50.697Z,8.10
2023-01-15T09:58:39.136Z,7.80
2023-01-15T10:01:29.117Z,7.80
2023-01-15T10:04:29.750Z,8.20
2023-01-15T10:07:27.608Z,8.70
2023-01-15T10:10:18.668Z,8.60
2023-01-15T10:13:22.327Z,9.00
2023-01-15T10:16:11.207Z,8.90
2023-01-15T10:19:02.164Z,8.50
2023-01-15T10:22:01.570Z,8.80
2023-01-15T10:24:56.777Z,9.20
2023-01-15T10:27:47.885Z,9.30
2023-01-15T10:30:44.457Z,9.60
2023-01-15T10:33:54.879Z,9.60
2023-01-15T10:36:46.915Z,9.50
2023-01-15T10:39:47.080Z,9.00
2023-01-15T10:43:08.283Z,8.30
2023-01-15T10:46:01.032Z,8.10
2023-01-15T10:48:50.133Z,8.30
2023-01-15T10:51:43.393Z,8.80
2023-01-15T10:54:48.896Z,9.20
2023-01-15T10:57:56.451Z,9.10
2023-01-15T11:00:56.949Z,9.00
2023-01-15T11:03:44.653Z,9.20
2023-01-15T11:06:32.821Z,9.20
2023-01-15T11:09:22.759Z,8.90
2023-01-15T11:12:51.442Z,9.30
2023-01-15T11:15:56.678Z,8.90
2023-01-15T11:19:04.394Z,9.10
2023-01-15T11:21:51.636Z,9.60
2023-01-15T11:24:55.456Z,9.50
2023-01-15T11:27:41.337Z,9.60
2023-01-15T11:30:33.023Z,9.70
2023-01-15T11:33:28.214Z,9.20
2023-01-15T11:36:23.595Z,9.40
2023-01-15T11:39:28.136Z,9.80
2023-01-15T11:42:37.252Z,9.90
2023-01-15T11:45:42.811Z,10.10
2023-01-15T11:48:46.732Z,10.50
2023-01-15T11:51:41.938Z,10.60
2023-01-15T11:54:29.811Z,10.80
2023-01-15T11:57:45.775Z,10.30
2023-01-15T12:00:37.114Z,10.40
2023-01-15T12:03:28.681Z,10.60
2023-01-15T12:06:15.086Z,10.50
2023-01-15T12:09:24.348Z,10.10
2023-01-15T12:12:42.412Z,10.30
2023-01-15T12:15:40.515Z,10.40
2023-01-15T12:18:37.388Z,10.30
2023-01-15T12:21:45.768Z,10.30
2023-01-15T12:24:56.403Z,10.10
2023-01-15T12:27:57.351Z,10.20
2023-01-15T12:30:49.562Z,10.40
2023-01-15T12:33:59.584Z,10.10
2023-01-15T12:37:11.898Z,10.10
2023-01-15T12:40:19.641Z,10.20
2023-01-15T12:43:35.788Z,10.00
2023-01-15T12:46:29.352Z,10.00
2023-01-15T12:49:44.976Z,9.30
2023-01-15T12:52:38.118Z,9.60
2023-01-15T12:55:28.353Z,9.70
2023-01-15T12:58:26.436Z,9.70
2023-01-15T13:01:20.924Z,10.00
2023-01-15T13:04:23.217Z,9.90
2023-01-15T13:07:53.345Z,9.90
2023-01-15T13:10:41.099Z,10.10
2023-01-15T13:13:32.797Z,10.30
2023-01-15T13:16:30.403Z,10.20
2023-01-15T13:19:42.624Z,10.10
2023-01-15T13:22:31.631Z,10.40
2023-01-15T13:25:41.795Z,10.30
2023-01-15T13:28:30.535Z,10.30
2023-01-15T13:31:54.145Z,9.60
2023-01-15T13:34:58.016Z,10.10
2023-01-15T13:37:51.405Z,9.40
2023-01-15T13:40:41.221Z,9.30
2023-01-15T13:47:34.855Z,10.20
2023-01-15T13:50:32.284Z,9.90
2023-01-15T13:57:58.603Z,9.90
2023-01-15T14:00:48.562Z,10.20
2023-01-15T14:03:40.872Z,9.40
2023-01-15T14:06:51.649Z,9.10
2023-01-15T14:09:40.447Z,9.50
2023-01-15T14:13:02.383Z,9.80
2023-01-15T14:16:14.502Z,10.10
2023-01-15T14:19:10.140Z,10.00
2023-01-15T14:22:01.999Z,10.00
2023-01-15T14:25:09.600Z,9.50
2023-01-15T14:28:28.970Z,9.80
2023-01-15T14:31:17.166Z,10.00
2023-01-15T14:34:31.902Z,10.10
2023-01-15T14:37:24.976Z,9.80
2023-01-15T14:40:25.538Z,9.70
2023-01-15T14:43:20.249Z,9.70
2023-01-15T14:46:21.705Z,9.70
2023-01-15T14:49:30.935Z,9.80
2023-01-15T14:52:44.549Z,9.80
2023-01-15T14:55:30.815Z,9.70
2023-01-15T14:58:48.289Z,9.40
2023-01-15T15:01:52.524Z,9.60
2023-01-15T15:05:00.453Z,9.10
2023-01-15T15:07:52.839Z,9.10
2023-01-15T15:10:43.573Z,9.30
2023-01-15T15:13:34.878Z,9.70
2023-01-15T15:16:27.016Z,9.90
2023-01-15T15:19:50.428Z,10.10
2023-01-15T15:22:38.614Z,9.30
2023-01-15T15:25:30.681Z,8.80
2023-01-15T15:28:16.421Z,8.90
2023-01-15T15:31:02.105Z,9.20
2023-01-15T15:33:47.800Z,9.70
2023-01-15T15:36:39.289Z,10.00
2023-01-15T15:40:02.888Z,10.00
2023-01-15T15:44:01.385Z,9.90
2023-01-15T15:47:09.412Z,9.80
2023-01-15T15:49:56.115Z,9.90
2023-01-15T15:52:44.590Z,9.90
2023-01-15T15:55:44.231Z,9.80
2023-01-15T15:58:36.885Z,10.00
2023-01-15T16:01:22.359Z,10.00
2023-01-15T16:04:15.082Z,9.70
2023-01-15T16:07:00.865Z,9.90
2023-01-15T16:09:51.699Z,9.60
2023-01-15T16:12:53.875Z,8.60
2023-01-15T16:15:41.456Z,9.10
2023-01-15T16:18:45.580Z,9.50
2023-01-15T16:21:37.405Z,9.10
2023-01-15T16:24:27.779Z,8.20
2023-01-15T16:27:17.427Z,8.50
2023-01-15T16:30:04.299Z,9.00
2023-01-15T16:32:51.351Z,9.50
2023-01-15T16:35:39.440Z,9.70
2023-01-15T16:39:02.468Z,9.80
2023-01-15T16:41:49.634Z,10.10
2023-01-15T16:44:42.896Z,10.00
2023-01-15T16:47:34.495Z,10.10
2023-01-15T16:50:20.981Z,10.00
2023-01-15T16:53:27.038Z,9.90
2023-01-15T16:56:40.549Z,9.60
2023-01-15T16:59:29.821Z,9.40
2023-01-15T17:02:17.720Z,9.60
2023-01-15T17:05:15.400Z,9.70
2023-01-15T17:08:01.243Z,9.70
2023-01-15T17:11:00.157Z,9.60
2023-01-15T17:13:46.364Z,9.60
2023-01-15T17:16:31.891Z,8.80
2023-01-15T17:19:17.528Z,8.70
2023-01-15T17:22:03.858Z,9.00
2023-01-15T17:24:55.323Z,9.40
2023-01-15T17:27:40.726Z,9.50
2023-01-15T17:30:35.079Z,9.60
2023-01-15T17:33:21.283Z,9.30
2023-01-15T17:36:07.434Z,9.10
2023-01-15T17:38:53.579Z,9.20
2023-01-15T17:41:39.161Z,9.20
2023-01-15T17:44:26.399Z,9.10
2023-01-15T17:47:12.708Z,9.20
2023-01-15T17:49:58.692Z,9.20
2023-01-15T17:52:45.246Z,9.10
2023-01-15T17:55:49.303Z,9.00
2023-01-15T17:58:53.515Z,9.20
2023-01-15T18:02:01.877Z,9.20
2023-01-15T18:05:10.405Z,9.10
2023-01-15T18:07:57.150Z,9.10
2023-01-15T18:10:42.676Z,9.00
2023-01-15T18:13:28.399Z,8.80
2023-01-15T18:16:14.376Z,8.90
2023-01-15T18:19:00.393Z,9.00
2023-01-15T18:21:46.536Z,9.10
2023-01-15T18:24:32.540Z,9.10
2023-01-15T18:27:19.967Z,9.00
2023-01-15T18:30:07.366Z,9.00
2023-01-15T18:32:54.057Z,9.10
2023-01-15T18:35:40.257Z,9.00
2023-01-15T18:38:28.317Z,9.00
2023-01-15T18:41:36.736Z,9.00
2023-01-15T18:44:45.359Z,8.90
2023-01-15T18:47:37.534Z,9.00
2023-01-15T18:50:24.021Z,8.90
2023-01-15T18:53:12.962Z,9.00
2023-01-15T18:56:07.246Z,8.80
2023-01-15T18:58:55.331Z,8.70
2023-01-15T19:01:44.782Z,8.80
2023-01-15T19:04:31.101Z,8.80
2023-01-15T19:07:19.816Z,8.70
2023-01-15T19:10:07.916Z,8.90
2023-01-15T19:12:54.562Z,9.00
2023-01-15T19:16:00.872Z,9.10
2023-01-15T19:18:53.464Z,9.10
2023-01-15T19:21:42.252Z,9.00
2023-01-15T19:24:30.454Z,9.00
2023-01-15T19:27:16.672Z,9.40
2023-01-15T19:30:02.389Z,9.00
2023-01-15T19:32:48.418Z,9.00
2023-01-15T19:35:35.783Z,9.10
2023-01-15T19:38:21.299Z,8.90
2023-01-15T19:41:32.547Z,8.80
2023-01-15T19:44:36.762Z,8.80
2023-01-15T19:47:53.123Z,9.10
2023-01-15T19:50:42.080Z,9.20
2023-01-15T19:53:28.611Z,9.10
2023-01-15T19:56:15.441Z,9.20
2023-01-15T19:59:01.572Z,9.20
2023-01-15T20:01:48.260Z,9.30
2023-01-15T20:04:34.344Z,9.20
2023-01-15T20:07:21.621Z,9.00
2023-01-15T20:10:11.563Z,9.10
2023-01-15T20:13:16.216Z,9.10
2023-01-15T20:16:14.097Z,9.10
2023-01-15T20:19:00.754Z,8.70
2023-01-15T20:21:46.769Z,8.80
2023-01-15T20:24:32.614Z,8.80
2023-01-15T20:27:19.100Z,8.60
2023-01-15T20:30:10.579Z,9.00
2023-01-15T20:32:59.321Z,9.00
2023-01-15T20:35:44.893Z,8.90
2023-01-15T20:38:31.335Z,9.00
2023-01-15T20:41:35.412Z,9.00
2023-01-15T20:44:39.607Z,9.00
2023-01-15T20:47:46.696Z,9.10
2023-01-15T20:50:34.098Z,8.70
2023-01-15T20:53:19.736Z,8.20
2023-01-15T20:56:14.808Z,8.40
2023-01-15T20:59:00.437Z,8.30
2023-01-15T21:01:46.282Z,8.50
2023-01-15T21:04:32.407Z,8.80
2023-01-15T21:07:18.501Z,8.70
2023-01-15T21:10:10.417Z,8.60
2023-01-15T21:12:56.856Z,8.80
2023-01-15T21:15:44.153Z,9.00
2023-01-15T21:18:31.645Z,9.10
2023-01-15T21:21:19.947Z,9.20
2023-01-15T21:24:06.018Z,8.90
2023-01-15T21:26:52.387Z,8.90
2023-01-15T21:29:38.976Z,8.90
2023-01-15T21:32:25.252Z,9.10
2023-01-15T21:35:11.264Z,9.20
2023-01-15T21:37:57.687Z,9.20
2023-01-15T21:40:44.151Z,9.00
2023-01-15T21:43:48.506Z,9.00
2023-01-15T21:46:34.679Z,8.80
2023-01-15T21:49:24.139Z,9.00
2023-01-15T21:52:16.315Z,8.80
2023-01-15T21:55:02.484Z,8.70
2023-01-15T21:57:49.879Z,8.60
2023-01-15T22:00:36.221Z,8.70
2023-01-15T22:03:23.198Z,8.60
2023-01-15T22:06:10.980Z,8.60
2023-01-15T22:08:57.314Z,8.80
2023-01-15T22:11:44.866Z,8.70
2023-01-15T22:14:32.881Z,8.70
2023-01-15T22:17:18.874Z,8.70
2023-01-15T22:20:06.359Z,8.70
2023-01-15T22:22:52.795Z,8.50
2023-01-15T22:25:43.402Z,8.40
2023-01-15T22:28:29.776Z,8.40
2023-01-15T22:31:18.366Z,8.50
2023-01-15T22:34:04.708Z,8.00
2023-01-15T22:36:52.877Z,8.10
2023-01-15T22:39:39.839Z,8.30
2023-01-15T22:42:28.013Z,8.30
2023-01-15T22:45:15.231Z,8.30
2023-01-15T22:48:01.689Z,8.30
2023-01-15T22:50:47.936Z,8.00
2023-01-15T22:53:36.389Z,8.30
2023-01-15T22:56:22.635Z,8.20
2023-01-15T22:59:09.837Z,8.20
2023-01-15T23:01:56.109Z,8.30
2023-01-15T23:04:43.432Z,8.60
2023-01-15T23:07:30.066Z,8.30
2023-01-15T23:10:16.614Z,8.10
2023-01-15T23:13:03.776Z,7.90
2023-01-15T23:15:58.195Z,8.00
2023-01-15T23:18:44.653Z,8.30
2023-01-15T23:21:32.334Z,8.30
2023-01-15T23:24:19.839Z,8.00
2023-01-15T23:27:06.683Z,8.20
2023-01-15T23:29:53.731Z,8.40
2023-01-15T23:32:40.472Z,8.40
2023-01-15T23:35:27.083Z,8.30
2023-01-15T23:38:14.932Z,8.10
2023-01-15T23:41:10.537Z,8.10
2023-01-15T23:44:15.946Z,8.10
2023-01-15T23:47:02.618Z,8.10
2023-01-15T23:49:49.820Z,8.00
2023-01-15T23:52:37.195Z,8.10
2023-01-15T23:55:23.951Z,7.90
2023-01-15T23:58:10.010Z,7.60
